Time,TemperatureF,DewpointF,PressureIn,WindDirection,WindDirectionDegrees,WindSpeedMPH,WindSpeedGustMPH,Humidity,HourlyPrecipIn,Conditions,Clouds,dailyrainin,SoftwareType,DateUTC
2013-03-19 00:02:00,8.2,-3.1,29.83,NW,315,31.0,37.0,59,0.00,,,0.01,meteohub,2013-03-19 05:02:00,
2013-03-19 00:07:00,8.2,-3.1,29.83,NW,315,32.0,36.0,59,0.00,,,0.01,meteohub,2013-03-19 05:07:00,
2013-03-19 00:13:00,8.1,-3.3,29.84,NW,315,33.0,36.0,59,0.00,,,0.01,meteohub,2013-03-19 05:13:00,
2013-03-19 00:18:00,8.2,-3.1,29.83,NW,315,35.0,36.0,59,0.00,,,0.01,meteohub,2013-03-19 05:18:00,
2013-03-19 00:23:00,8.1,-3.3,29.83,West,270,35.0,36.0,59,0.00,,,0.01,meteohub,2013-03-19 05:23:00,
2013-03-19 00:28:00,8.2,-3.1,29.84,West,270,33.0,37.0,59,0.00,,,0.01,meteohub,2013-03-19 05:28:00,
2013-03-19 00:34:00,8.2,-3.1,29.84,NW,315,40.0,40.0,59,0.00,,,0.01,meteohub,2013-03-19 05:34:00,
2013-03-19 00:39:00,8.2,-3.1,29.83,NW,315,34.0,37.0,59,0.00,,,0.01,meteohub,2013-03-19 05:39:00,
2013-03-19 00:44:00,8.1,-3.3,29.84,NW,315,34.0,40.0,59,0.00,,,0.01,meteohub,2013-03-19 05:44:00,
2013-03-19 00:49:00,8.1,-3.3,29.84,NW,315,33.0,40.0,59,0.00,,,0.01,meteohub,2013-03-19 05:49:00,
2013-03-19 00:54:00,7.9,-3.5,29.84,NW,315,32.0,39.0,59,0.00,,,0.01,meteohub,2013-03-19 05:54:00,
2013-03-19 00:59:00,7.7,-3.6,29.84,NW,315,32.0,35.0,59,0.00,,,0.01,meteohub,2013-03-19 05:59:00,
2013-03-19 01:05:00,7.7,-4.0,29.85,West,270,32.0,35.0,58,0.00,,,0.01,meteohub,2013-03-19 06:05:00,
2013-03-19 01:10:00,7.7,-4.0,29.84,NW,315,31.0,35.0,58,0.00,,,0.01,meteohub,2013-03-19 06:10:00,
2013-03-19 01:15:00,7.5,-4.2,29.85,West,270,32.0,35.0,58,0.00,,,0.01,meteohub,2013-03-19 06:15:00,
2013-03-19 01:20:00,7.5,-4.2,29.85,West,270,31.0,36.0,58,0.00,,,0.01,meteohub,2013-03-19 06:20:00,
2013-03-19 01:26:00,7.5,-4.2,29.85,NW,315,34.0,36.0,58,0.00,,,0.01,meteohub,2013-03-19 06:26:00,
2013-03-19 01:31:00,7.5,-4.5,29.85,West,270,30.0,36.0,57,0.00,,,0.01,meteohub,2013-03-19 06:31:00,
2013-03-19 01:36:00,7.3,-4.7,29.85,WNW,293,30.0,34.0,57,0.00,,,0.01,meteohub,2013-03-19 06:36:00,
2013-03-19 01:41:00,7.3,-4.7,29.84,NW,315,33.0,36.0,57,0.00,,,0.01,meteohub,2013-03-19 06:41:00,
2013-03-19 01:46:00,7.3,-4.7,29.84,NW,315,33.0,36.0,57,0.00,,,0.01,meteohub,2013-03-19 06:46:00,
2013-03-19 01:51:00,7.2,-4.5,29.84,NW,315,32.0,36.0,58,0.00,,,0.01,meteohub,2013-03-19 06:51:00,
2013-03-19 01:57:00,7.3,-4.4,29.86,West,270,31.0,36.0,58,0.00,,,0.01,meteohub,2013-03-19 06:57:00,
2013-03-19 02:02:00,7.2,-4.5,29.86,WNW,293,34.0,34.0,58,0.00,,,0.01,meteohub,2013-03-19 07:02:00,
2013-03-19 02:07:00,7.0,-4.7,29.85,NW,315,27.0,34.0,58,0.00,,,0.01,meteohub,2013-03-19 07:07:00,
2013-03-19 02:12:00,7.0,-4.7,29.85,NW,315,26.0,34.0,58,0.00,,,0.01,meteohub,2013-03-19 07:12:00,
2013-03-19 02:17:00,6.8,-5.3,29.86,West,270,29.0,34.0,57,0.00,,,0.01,meteohub,2013-03-19 07:17:00,
2013-03-19 02:23:00,6.8,-5.3,29.85,NW,315,26.0,32.0,57,0.00,,,0.01,meteohub,2013-03-19 07:23:00,
2013-03-19 02:28:00,6.8,-5.3,29.86,NW,315,26.0,32.0,57,0.00,,,0.01,meteohub,2013-03-19 07:28:00,
2013-03-19 02:33:00,6.6,-5.1,29.86,NW,315,29.0,31.0,58,0.00,,,0.01,meteohub,2013-03-19 07:33:00,
2013-03-19 02:38:00,6.4,-5.3,29.86,NW,315,27.0,31.0,58,0.00,,,0.01,meteohub,2013-03-19 07:38:00,
2013-03-19 02:43:00,6.3,-5.4,29.87,NW,315,28.0,29.0,58,0.00,,,0.01,meteohub,2013-03-19 07:43:00,
2013-03-19 02:48:00,6.3,-5.4,29.86,West,270,26.0,30.0,58,0.00,,,0.01,meteohub,2013-03-19 07:48:00,
2013-03-19 02:54:00,6.3,-5.4,29.86,NW,315,28.0,30.0,58,0.00,,,0.01,meteohub,2013-03-19 07:54:00,
2013-03-19 02:59:00,6.1,-5.4,29.87,NW,315,28.0,30.0,58,0.00,,,0.01,meteohub,2013-03-19 07:59:00,
2013-03-19 03:04:00,6.1,-5.4,29.87,NW,315,26.0,30.0,58,0.00,,,0.01,meteohub,2013-03-19 08:04:00,
2013-03-19 03:10:00,6.1,-5.4,29.87,NW,315,29.0,30.0,58,0.00,,,0.01,meteohub,2013-03-19 08:10:00,
2013-03-19 03:15:00,5.9,-5.6,29.87,NW,315,28.0,30.0,58,0.00,,,0.01,meteohub,2013-03-19 08:15:00,
2013-03-19 03:20:00,5.9,-5.6,29.87,West,270,25.0,30.0,58,0.00,,,0.01,meteohub,2013-03-19 08:20:00,
2013-03-19 03:25:00,5.9,-6.0,29.88,NW,315,30.0,30.0,57,0.00,,,0.01,meteohub,2013-03-19 08:25:00,
2013-03-19 03:30:00,5.9,-6.0,29.87,West,270,28.0,30.0,57,0.00,,,0.01,meteohub,2013-03-19 08:30:00,
2013-03-19 03:35:00,5.9,-6.0,29.87,West,270,27.0,30.0,57,0.00,,,0.01,meteohub,2013-03-19 08:35:00,
2013-03-19 03:40:00,5.9,-6.0,29.88,NW,315,24.0,30.0,57,0.00,,,0.01,meteohub,2013-03-19 08:40:00,
2013-03-19 03:45:00,5.7,-6.2,29.88,West,270,23.0,28.0,57,0.00,,,0.01,meteohub,2013-03-19 08:45:00,
2013-03-19 03:51:00,5.9,-6.0,29.88,West,270,23.0,27.0,57,0.00,,,0.01,meteohub,2013-03-19 08:51:00,
2013-03-19 03:56:00,5.9,-6.0,29.88,West,270,27.0,28.0,57,0.00,,,0.01,meteohub,2013-03-19 08:56:00,
2013-03-19 04:01:00,5.9,-6.3,29.88,West,270,27.0,29.0,56,0.00,,,0.01,meteohub,2013-03-19 09:01:00,
2013-03-19 04:06:00,5.9,-6.3,29.88,West,270,30.0,30.0,56,0.00,,,0.01,meteohub,2013-03-19 09:06:00,
2013-03-19 04:11:00,5.9,-6.3,29.88,West,270,25.0,30.0,56,0.00,,,0.01,meteohub,2013-03-19 09:11:00,
2013-03-19 04:17:00,5.9,-6.3,29.88,West,270,29.0,30.0,56,0.00,,,0.01,meteohub,2013-03-19 09:17:00,
2013-03-19 04:22:00,5.9,-6.3,29.89,West,270,31.0,31.0,56,0.00,,,0.01,meteohub,2013-03-19 09:22:00,
2013-03-19 04:27:00,5.9,-6.3,29.88,NW,315,30.0,31.0,56,0.00,,,0.01,meteohub,2013-03-19 09:27:00,
2013-03-19 04:32:00,5.9,-6.9,29.88,West,270,27.0,31.0,55,0.00,,,0.01,meteohub,2013-03-19 09:32:00,
2013-03-19 04:37:00,5.7,-6.9,29.89,West,270,25.0,31.0,55,0.00,,,0.01,meteohub,2013-03-19 09:37:00,
2013-03-19 04:42:00,5.7,-6.9,29.89,West,270,26.0,30.0,55,0.00,,,0.01,meteohub,2013-03-19 09:42:00,
2013-03-19 04:47:00,5.7,-6.9,29.90,West,270,27.0,33.0,55,0.00,,,0.01,meteohub,2013-03-19 09:47:00,
2013-03-19 04:52:00,5.7,-6.9,29.89,West,270,26.0,33.0,55,0.00,,,0.01,meteohub,2013-03-19 09:52:00,
2013-03-19 04:57:00,5.7,-6.9,29.89,NW,315,27.0,33.0,55,0.00,,,0.01,meteohub,2013-03-19 09:57:00,
2013-03-19 05:03:00,5.5,-7.1,29.89,NW,315,23.0,27.0,55,0.00,,,0.01,meteohub,2013-03-19 10:03:00,
2013-03-19 05:08:00,5.4,-7.2,29.88,West,270,24.0,28.0,55,0.00,,,0.01,meteohub,2013-03-19 10:08:00,
2013-03-19 05:13:00,5.5,-7.1,29.90,NW,315,26.0,28.0,55,0.00,,,0.01,meteohub,2013-03-19 10:13:00,
2013-03-19 05:18:00,5.7,-6.9,29.89,West,270,27.0,28.0,55,0.00,,,0.01,meteohub,2013-03-19 10:18:00,
2013-03-19 05:23:00,5.5,-7.4,29.90,West,270,24.0,28.0,54,0.00,,,0.01,meteohub,2013-03-19 10:23:00,
2013-03-19 05:28:00,5.5,-7.4,29.89,West,270,23.0,28.0,54,0.00,,,0.01,meteohub,2013-03-19 10:28:00,
2013-03-19 05:34:00,5.4,-7.6,29.90,West,270,27.0,28.0,54,0.00,,,0.01,meteohub,2013-03-19 10:34:00,
2013-03-19 05:39:00,5.4,-7.6,29.90,NW,315,26.0,31.0,54,0.00,,,0.01,meteohub,2013-03-19 10:39:00,
2013-03-19 05:44:00,5.4,-7.6,29.89,West,270,26.0,31.0,54,0.00,,,0.01,meteohub,2013-03-19 10:44:00,
2013-03-19 05:49:00,5.2,-7.8,29.90,West,270,27.0,31.0,54,0.00,,,0.01,meteohub,2013-03-19 10:49:00,
2013-03-19 05:54:00,5.2,-7.8,29.90,NW,315,27.0,29.0,54,0.00,,,0.01,meteohub,2013-03-19 10:54:00,
2013-03-19 06:00:00,5.0,-8.0,29.90,West,270,25.0,29.0,54,0.00,,,0.01,meteohub,2013-03-19 11:00:00,
2013-03-19 06:05:00,5.0,-8.0,29.90,NW,315,23.0,27.0,54,0.00,,,0.01,meteohub,2013-03-19 11:05:00,
2013-03-19 06:10:00,5.0,-8.0,29.91,NW,315,25.0,27.0,54,0.00,,,0.01,meteohub,2013-03-19 11:10:00,
2013-03-19 06:15:00,4.8,-7.8,29.91,NW,315,21.0,27.0,55,0.00,,,0.01,meteohub,2013-03-19 11:15:00,
2013-03-19 06:20:00,4.6,-8.0,29.91,NW,315,23.0,26.0,55,0.00,,,0.01,meteohub,2013-03-19 11:20:00,
2013-03-19 06:26:00,4.5,-8.1,29.91,West,270,21.0,26.0,55,0.00,,,0.01,meteohub,2013-03-19 11:26:00,
2013-03-19 06:31:00,4.3,-8.3,29.92,West,270,23.0,25.0,55,0.00,,,0.01,meteohub,2013-03-19 11:31:00,
2013-03-19 06:36:00,4.5,-8.1,29.93,North,0,22.0,25.0,55,0.00,,,0.01,meteohub,2013-03-19 11:36:00,
2013-03-19 06:41:00,4.6,-8.0,29.93,NW,315,24.0,25.0,55,0.00,,,0.01,meteohub,2013-03-19 11:41:00,
2013-03-19 06:47:00,4.5,-8.1,29.94,West,270,23.0,25.0,55,0.00,,,0.01,meteohub,2013-03-19 11:47:00,
2013-03-19 06:52:00,4.1,-8.5,29.94,NW,315,21.0,25.0,55,0.00,,,0.01,meteohub,2013-03-19 11:52:00,
2013-03-19 06:57:00,4.1,-8.5,29.94,NW,315,21.0,25.0,55,0.00,,,0.01,meteohub,2013-03-19 11:57:00,
2013-03-19 07:02:00,3.7,-8.9,29.93,NW,315,23.0,25.0,55,0.00,,,0.01,meteohub,2013-03-19 12:02:00,
2013-03-19 07:07:00,3.7,-8.9,29.94,West,270,21.0,23.0,55,0.00,,,0.01,meteohub,2013-03-19 12:07:00,
2013-03-19 07:13:00,3.9,-8.7,29.94,NW,315,21.0,23.0,55,0.00,,,0.01,meteohub,2013-03-19 12:13:00,
2013-03-19 07:18:00,3.7,-8.9,29.95,NW,315,19.0,23.0,55,0.00,,,0.01,meteohub,2013-03-19 12:18:00,
2013-03-19 07:24:00,3.6,-9.0,29.94,NW,315,19.0,23.0,55,0.00,,,0.01,meteohub,2013-03-19 12:24:00,
2013-03-19 07:29:00,3.4,-9.2,29.96,West,270,18.0,22.0,55,0.00,,,0.01,meteohub,2013-03-19 12:29:00,
2013-03-19 07:34:00,3.7,-8.9,29.95,West,270,17.0,22.0,55,0.00,,,0.01,meteohub,2013-03-19 12:34:00,
2013-03-19 07:40:00,4.1,-8.5,29.96,NW,315,18.0,21.0,55,0.00,,,0.01,meteohub,2013-03-19 12:40:00,
2013-03-19 07:45:00,3.9,-9.0,29.96,West,270,14.0,21.0,54,0.00,,,0.01,meteohub,2013-03-19 12:45:00,
2013-03-19 07:50:00,3.4,-9.6,29.96,West,270,21.0,22.0,54,0.00,,,0.01,meteohub,2013-03-19 12:50:00,
2013-03-19 07:55:00,3.4,-9.6,29.96,West,270,20.0,24.0,54,0.00,,,0.01,meteohub,2013-03-19 12:55:00,
2013-03-19 08:00:00,3.6,-9.4,29.98,West,270,23.0,24.0,54,0.00,,,0.01,meteohub,2013-03-19 13:00:00,
2013-03-19 08:05:00,4.1,-8.5,29.98,West,270,15.0,24.0,55,0.00,,,0.01,meteohub,2013-03-19 13:05:00,
2013-03-19 08:11:00,3.9,-8.7,29.98,West,270,19.0,23.0,55,0.00,,,0.01,meteohub,2013-03-19 13:11:00,
2013-03-19 08:16:00,4.1,-8.5,29.98,West,270,15.0,23.0,55,0.00,,,0.01,meteohub,2013-03-19 13:16:00,
2013-03-19 08:22:00,4.5,-8.1,29.98,West,270,20.0,21.0,55,0.00,,,0.01,meteohub,2013-03-19 13:22:00,
2013-03-19 08:27:00,4.5,-8.1,29.98,North,0,18.0,20.0,55,0.00,,,0.01,meteohub,2013-03-19 13:27:00,
2013-03-19 08:32:00,5.0,-8.0,29.99,NW,315,23.0,23.0,54,0.00,,,0.01,meteohub,2013-03-19 13:32:00,
2013-03-19 08:37:00,4.5,-8.5,29.99,North,0,23.0,27.0,54,0.00,,,0.01,meteohub,2013-03-19 13:37:00,
2013-03-19 08:42:00,5.0,-8.3,29.99,West,270,25.0,27.0,53,0.00,,,0.01,meteohub,2013-03-19 13:42:00,
2013-03-19 08:48:00,5.0,-8.3,29.99,WNW,293,26.0,27.0,53,0.00,,,0.01,meteohub,2013-03-19 13:48:00,
2013-03-19 08:53:00,5.4,-8.1,29.99,NW,315,19.0,25.0,53,0.00,,,0.01,meteohub,2013-03-19 13:53:00,
2013-03-19 08:58:00,5.7,-7.8,30.00,West,270,21.0,26.0,53,0.00,,,0.01,meteohub,2013-03-19 13:58:00,
2013-03-19 09:03:00,5.9,-7.6,30.00,NW,315,18.0,26.0,53,0.00,,,0.01,meteohub,2013-03-19 14:03:00,
2013-03-19 09:08:00,6.6,-6.9,30.00,West,270,22.0,26.0,53,0.00,,,0.01,meteohub,2013-03-19 14:08:00,
2013-03-19 09:13:00,6.6,-6.9,30.01,NW,315,24.0,25.0,53,0.00,,,0.01,meteohub,2013-03-19 14:13:00,
2013-03-19 09:18:00,6.3,-7.6,30.00,NW,315,18.0,25.0,52,0.00,,,0.01,meteohub,2013-03-19 14:18:00,
2013-03-19 09:24:00,6.3,-7.6,30.01,NW,315,25.0,25.0,52,0.00,,,0.01,meteohub,2013-03-19 14:24:00,
2013-03-19 09:29:00,6.6,-7.2,30.01,West,270,23.0,25.0,52,0.00,,,0.01,meteohub,2013-03-19 14:29:00,
2013-03-19 09:34:00,7.0,-7.4,30.01,North,0,18.0,26.0,51,0.00,,,0.01,meteohub,2013-03-19 14:34:00,
2013-03-19 09:40:00,7.3,-7.1,30.01,NW,315,20.0,27.0,51,0.00,,,0.01,meteohub,2013-03-19 14:40:00,
2013-03-19 09:45:00,7.7,-6.7,30.02,West,270,24.0,27.0,51,0.00,,,0.01,meteohub,2013-03-19 14:45:00,
2013-03-19 09:50:00,7.2,-7.2,30.02,NW,315,23.0,27.0,51,0.00,,,0.01,meteohub,2013-03-19 14:50:00,
2013-03-19 09:55:00,7.5,-6.9,30.03,West,270,27.0,27.0,51,0.00,,,0.01,meteohub,2013-03-19 14:55:00,
2013-03-19 10:01:00,7.5,-6.9,30.03,NW,315,25.0,29.0,51,0.00,,,0.01,meteohub,2013-03-19 15:01:00,
2013-03-19 10:06:00,8.1,-6.3,30.04,NW,315,24.0,29.0,51,0.00,,,0.01,meteohub,2013-03-19 15:06:00,
2013-03-19 10:11:00,8.2,-6.2,30.04,NW,315,27.0,29.0,51,0.00,,,0.01,meteohub,2013-03-19 15:11:00,
2013-03-19 10:16:00,8.2,-6.2,30.03,West,270,26.0,27.0,51,0.00,,,0.01,meteohub,2013-03-19 15:16:00,
2013-03-19 10:22:00,8.2,-6.5,30.03,NW,315,27.0,27.0,50,0.00,,,0.01,meteohub,2013-03-19 15:22:00,
2013-03-19 10:27:00,8.4,-6.3,30.03,NW,315,25.0,28.0,50,0.00,,,0.01,meteohub,2013-03-19 15:27:00,
2013-03-19 10:32:00,9.1,-5.8,30.02,NW,315,26.0,28.0,50,0.00,,,0.01,meteohub,2013-03-19 15:32:00,
2013-03-19 10:37:00,9.1,-6.2,30.02,NW,315,23.0,30.0,49,0.00,,,0.01,meteohub,2013-03-19 15:37:00,
2013-03-19 10:42:00,9.0,-6.3,30.04,West,270,26.0,30.0,49,0.00,,,0.01,meteohub,2013-03-19 15:42:00,
2013-03-19 10:47:00,9.5,-5.8,30.04,NW,315,23.0,30.0,49,0.00,,,0.01,meteohub,2013-03-19 15:47:00,
2013-03-19 10:53:00,9.5,-5.8,30.04,NW,315,23.0,27.0,49,0.00,,,0.01,meteohub,2013-03-19 15:53:00,
2013-03-19 10:58:00,9.3,-6.0,30.04,NW,315,27.0,27.0,49,0.00,,,0.01,meteohub,2013-03-19 15:58:00,
2013-03-19 11:03:00,9.1,-6.2,30.04,NW,315,26.0,27.0,49,0.00,,,0.01,meteohub,2013-03-19 16:03:00,
2013-03-19 11:08:00,10.4,-2.9,30.04,NW,315,25.0,28.0,54,0.00,,,0.01,meteohub,2013-03-19 16:08:00,
2013-03-19 11:13:00,10.0,-5.3,30.04,West,270,23.0,28.0,49,0.00,,,0.01,meteohub,2013-03-19 16:13:00,
2013-03-19 11:19:00,10.9,-2.4,30.04,NE,45,24.0,27.0,54,0.00,,,0.01,meteohub,2013-03-19 16:19:00,
2013-03-19 11:24:00,11.1,-2.2,30.03,NW,315,24.0,28.0,54,0.00,,,0.01,meteohub,2013-03-19 16:24:00,
2013-03-19 11:29:00,11.7,-1.8,30.03,NW,315,22.0,28.0,54,0.00,,,0.01,meteohub,2013-03-19 16:29:00,
2013-03-19 11:35:00,12.0,-1.8,30.04,NW,315,23.0,27.0,53,0.00,,,0.01,meteohub,2013-03-19 16:35:00,
2013-03-19 11:40:00,12.9,-0.9,30.03,NW,315,23.0,27.0,53,0.00,,,0.01,meteohub,2013-03-19 16:40:00,
2013-03-19 11:45:00,12.6,-1.7,30.03,NW,315,25.0,27.0,52,0.00,,,0.01,meteohub,2013-03-19 16:45:00,
2013-03-19 11:50:00,12.9,-1.5,30.03,NW,315,29.0,29.0,52,0.00,,,0.01,meteohub,2013-03-19 16:50:00,
2013-03-19 11:56:00,13.1,-1.3,30.05,North,0,25.0,29.0,52,0.00,,,0.01,meteohub,2013-03-19 16:56:00,
2013-03-19 12:01:00,12.4,-1.8,30.05,NW,315,24.0,29.0,52,0.00,,,0.01,meteohub,2013-03-19 17:01:00,
2013-03-19 12:06:00,12.4,-1.8,30.05,NW,315,23.0,29.0,52,0.00,,,0.01,meteohub,2013-03-19 17:06:00,
2013-03-19 12:11:00,12.7,-1.1,30.06,NW,315,24.0,27.0,53,0.00,,,0.01,meteohub,2013-03-19 17:11:00,
2013-03-19 12:17:00,12.2,-1.7,30.04,WNW,293,20.0,28.0,53,0.00,,,0.01,meteohub,2013-03-19 17:17:00,
2013-03-19 12:22:00,13.3,-0.2,30.02,NW,315,25.0,28.0,54,0.00,,,0.01,meteohub,2013-03-19 17:22:00,
2013-03-19 12:27:00,14.0,-0.4,30.06,NW,315,23.0,28.0,52,0.00,,,0.01,meteohub,2013-03-19 17:27:00,
2013-03-19 12:32:00,14.2,-0.2,30.05,NW,315,26.0,26.0,52,0.00,,,0.01,meteohub,2013-03-19 17:32:00,
2013-03-19 12:37:00,13.5,-0.9,30.05,NW,315,25.0,29.0,52,0.00,,,0.01,meteohub,2013-03-19 17:37:00,
2013-03-19 12:43:00,14.0,-0.4,30.05,NW,315,23.0,29.0,52,0.00,,,0.01,meteohub,2013-03-19 17:43:00,
2013-03-19 12:48:00,14.4,0.0,30.05,NW,315,25.0,29.0,52,0.00,,,0.01,meteohub,2013-03-19 17:48:00,
2013-03-19 12:53:00,14.0,-0.4,30.05,NW,315,26.0,27.0,52,0.00,,,0.01,meteohub,2013-03-19 17:53:00,
2013-03-19 12:59:00,14.2,-0.2,30.05,NW,315,21.0,28.0,52,0.00,,,0.01,meteohub,2013-03-19 17:59:00,
2013-03-19 13:04:00,14.7,0.3,30.04,West,270,25.0,28.0,52,0.00,,,0.01,meteohub,2013-03-19 18:04:00,
2013-03-19 13:09:00,14.5,0.1,30.05,NW,315,25.0,28.0,52,0.00,,,0.01,meteohub,2013-03-19 18:09:00,
2013-03-19 13:14:00,14.7,0.3,30.05,NW,315,23.0,29.0,52,0.00,,,0.01,meteohub,2013-03-19 18:14:00,
2013-03-19 13:20:00,15.1,1.0,30.05,NW,315,23.0,29.0,53,0.00,,,0.01,meteohub,2013-03-19 18:20:00,
2013-03-19 13:25:00,14.9,0.5,30.05,NW,315,27.0,29.0,52,0.00,,,0.01,meteohub,2013-03-19 18:25:00,
2013-03-19 13:30:00,14.4,0.0,30.05,NW,315,26.0,29.0,52,0.00,,,0.01,meteohub,2013-03-19 18:30:00,
2013-03-19 13:35:00,15.1,1.0,30.05,NW,315,18.0,29.0,53,0.00,,,0.01,meteohub,2013-03-19 18:35:00,
2013-03-19 13:40:00,15.1,0.7,30.05,NW,315,27.0,29.0,52,0.00,,,0.01,meteohub,2013-03-19 18:40:00,
2013-03-19 13:46:00,15.1,0.7,30.06,WNW,293,30.0,30.0,52,0.00,,,0.01,meteohub,2013-03-19 18:46:00,
2013-03-19 13:52:00,15.3,1.2,30.06,NW,315,29.0,30.0,53,0.00,,,0.01,meteohub,2013-03-19 18:52:00,
2013-03-19 13:57:00,14.9,0.5,30.06,NW,315,25.0,30.0,52,0.00,,,0.01,meteohub,2013-03-19 18:57:00,
2013-03-19 14:02:00,15.4,1.0,30.06,NW,315,30.0,30.0,52,0.00,,,0.01,meteohub,2013-03-19 19:02:00,
2013-03-19 14:07:00,15.3,0.9,30.06,NW,315,31.0,31.0,52,0.00,,,0.01,meteohub,2013-03-19 19:07:00,
2013-03-19 14:12:00,15.3,0.9,30.06,NW,315,27.0,34.0,52,0.00,,,0.01,meteohub,2013-03-19 19:12:00,
2013-03-19 14:18:00,15.4,1.0,30.06,NW,315,25.0,34.0,52,0.00,,,0.01,meteohub,2013-03-19 19:18:00,
2013-03-19 14:23:00,16.2,1.6,30.06,NW,315,26.0,34.0,52,0.00,,,0.01,meteohub,2013-03-19 19:23:00,
2013-03-19 14:28:00,15.3,0.9,30.06,NW,315,30.0,30.0,52,0.00,,,0.01,meteohub,2013-03-19 19:28:00,
2013-03-19 14:33:00,14.9,0.0,30.06,NW,315,30.0,33.0,51,0.00,,,0.01,meteohub,2013-03-19 19:33:00,
2013-03-19 14:38:00,15.4,1.0,30.06,NW,315,31.0,34.0,52,0.00,,,0.01,meteohub,2013-03-19 19:38:00,
2013-03-19 14:43:00,15.1,0.1,30.06,NW,315,30.0,34.0,51,0.00,,,0.01,meteohub,2013-03-19 19:43:00,
2013-03-19 14:48:00,15.4,1.0,30.06,NW,315,31.0,34.0,52,0.00,,,0.01,meteohub,2013-03-19 19:48:00,
2013-03-19 14:53:00,15.6,1.6,30.06,NW,315,30.0,34.0,53,0.00,,,0.01,meteohub,2013-03-19 19:53:00,
2013-03-19 14:58:00,15.1,0.7,30.06,NW,315,32.0,34.0,52,0.00,,,0.01,meteohub,2013-03-19 19:58:00,
2013-03-19 15:04:00,15.6,1.6,30.08,NW,315,34.0,34.0,53,0.00,,,0.01,meteohub,2013-03-19 20:04:00,
2013-03-19 15:09:00,14.9,0.5,30.07,NW,315,36.0,36.0,52,0.00,,,0.01,meteohub,2013-03-19 20:09:00,
2013-03-19 15:14:00,15.6,1.6,30.06,NW,315,27.0,35.0,53,0.00,,,0.01,meteohub,2013-03-19 20:14:00,
2013-03-19 15:19:00,14.5,0.1,30.08,NW,315,32.0,36.0,52,0.00,,,0.01,meteohub,2013-03-19 20:19:00,
2013-03-19 15:24:00,14.7,0.3,30.06,West,270,33.0,36.0,52,0.00,,,0.01,meteohub,2013-03-19 20:24:00,
2013-03-19 15:30:00,15.1,0.7,30.07,NW,315,30.0,36.0,52,0.00,,,0.01,meteohub,2013-03-19 20:30:00,
2013-03-19 15:35:00,15.3,0.9,30.06,NW,315,30.0,34.0,52,0.00,,,0.01,meteohub,2013-03-19 20:35:00,
2013-03-19 15:41:00,15.3,0.9,30.06,NW,315,28.0,34.0,52,0.00,,,0.01,meteohub,2013-03-19 20:41:00,
2013-03-19 15:46:00,15.3,0.9,30.07,NW,315,31.0,33.0,52,0.00,,,0.01,meteohub,2013-03-19 20:46:00,
2013-03-19 15:51:00,16.0,0.7,30.07,NW,315,32.0,33.0,50,0.00,,,0.01,meteohub,2013-03-19 20:51:00,
2013-03-19 15:56:00,15.4,0.1,30.07,NW,315,32.0,37.0,50,0.00,,,0.01,meteohub,2013-03-19 20:56:00,
2013-03-19 16:02:00,15.6,0.7,30.08,NW,315,32.0,37.0,51,0.00,,,0.01,meteohub,2013-03-19 21:02:00,
2013-03-19 16:07:00,15.8,0.5,30.08,NW,315,32.0,37.0,50,0.00,,,0.01,meteohub,2013-03-19 21:07:00,
2013-03-19 16:12:00,15.3,0.3,30.08,NW,315,28.0,35.0,51,0.00,,,0.01,meteohub,2013-03-19 21:12:00,
2013-03-19 16:17:00,16.0,1.0,30.09,NW,315,27.0,36.0,51,0.00,,,0.01,meteohub,2013-03-19 21:17:00,
2013-03-19 16:23:00,15.6,1.0,30.09,NW,315,33.0,36.0,52,0.00,,,0.01,meteohub,2013-03-19 21:23:00,
2013-03-19 16:28:00,15.4,1.0,30.09,NW,315,31.0,36.0,52,0.00,,,0.01,meteohub,2013-03-19 21:28:00,
2013-03-19 16:33:00,15.6,1.0,30.09,WNW,293,30.0,34.0,52,0.00,,,0.01,meteohub,2013-03-19 21:33:00,
2013-03-19 16:38:00,15.4,1.0,30.09,NW,315,33.0,36.0,52,0.00,,,0.01,meteohub,2013-03-19 21:38:00,
2013-03-19 16:43:00,15.6,1.0,30.09,NW,315,35.0,38.0,52,0.00,,,0.01,meteohub,2013-03-19 21:43:00,
2013-03-19 16:49:00,15.3,0.9,30.09,NW,315,31.0,38.0,52,0.00,,,0.01,meteohub,2013-03-19 21:49:00,
2013-03-19 16:54:00,15.6,1.0,30.09,NW,315,34.0,38.0,52,0.00,,,0.01,meteohub,2013-03-19 21:54:00,
2013-03-19 16:59:00,15.3,0.3,30.10,NW,315,37.0,37.0,51,0.00,,,0.01,meteohub,2013-03-19 21:59:00,
2013-03-19 17:04:00,15.4,0.1,30.10,NNW,338,32.0,37.0,50,0.00,,,0.01,meteohub,2013-03-19 22:04:00,
2013-03-19 17:09:00,15.6,0.7,30.11,NW,315,28.0,37.0,51,0.00,,,0.01,meteohub,2013-03-19 22:09:00,
2013-03-19 17:14:00,15.8,0.5,30.11,NW,315,31.0,37.0,50,0.00,,,0.01,meteohub,2013-03-19 22:14:00,
2013-03-19 17:19:00,15.6,0.7,30.11,NW,315,28.0,35.0,51,0.00,,,0.01,meteohub,2013-03-19 22:19:00,
2013-03-19 17:25:00,15.3,0.3,30.11,NW,315,33.0,33.0,51,0.00,,,0.01,meteohub,2013-03-19 22:25:00,
2013-03-19 17:30:00,14.9,-0.4,30.12,NW,315,33.0,33.0,50,0.00,,,0.01,meteohub,2013-03-19 22:30:00,
2013-03-19 17:35:00,14.7,-0.6,30.12,NW,315,34.0,34.0,50,0.00,,,0.01,meteohub,2013-03-19 22:35:00,
2013-03-19 17:40:00,14.5,-0.8,30.12,NW,315,30.0,36.0,50,0.00,,,0.01,meteohub,2013-03-19 22:40:00,
2013-03-19 17:45:00,14.4,-0.9,30.12,NW,315,34.0,36.0,50,0.00,,,0.01,meteohub,2013-03-19 22:45:00,
2013-03-19 17:51:00,14.2,-1.1,30.12,NW,315,29.0,36.0,50,0.00,,,0.01,meteohub,2013-03-19 22:51:00,
2013-03-19 17:57:00,14.4,-0.4,30.12,NW,315,28.0,36.0,51,0.00,,,0.01,meteohub,2013-03-19 22:57:00,
2013-03-19 18:02:00,14.4,-0.4,30.12,NW,315,32.0,36.0,51,0.00,,,0.01,meteohub,2013-03-19 23:02:00,
2013-03-19 18:07:00,14.4,-0.4,30.12,NW,315,32.0,33.0,51,0.00,,,0.01,meteohub,2013-03-19 23:07:00,
2013-03-19 18:12:00,14.4,-0.4,30.12,NW,315,29.0,33.0,51,0.00,,,0.01,meteohub,2013-03-19 23:12:00,
2013-03-19 18:18:00,14.4,-0.4,30.13,NW,315,30.0,33.0,51,0.00,,,0.01,meteohub,2013-03-19 23:18:00,
2013-03-19 18:23:00,14.4,-0.4,30.13,NW,315,23.0,33.0,51,0.00,,,0.01,meteohub,2013-03-19 23:23:00,
2013-03-19 18:28:00,14.4,0.0,30.13,NW,315,25.0,33.0,52,0.00,,,0.01,meteohub,2013-03-19 23:28:00,
2013-03-19 18:33:00,14.5,0.1,30.13,NW,315,28.0,32.0,52,0.00,,,0.01,meteohub,2013-03-19 23:33:00,
2013-03-19 18:39:00,14.4,-0.4,30.13,NW,315,25.0,30.0,51,0.00,,,0.01,meteohub,2013-03-19 23:39:00,
2013-03-19 18:44:00,14.2,-0.6,30.13,NW,315,31.0,31.0,51,0.00,,,0.01,meteohub,2013-03-19 23:44:00,
2013-03-19 18:49:00,13.8,-0.6,30.13,NW,315,33.0,33.0,52,0.00,,,0.01,meteohub,2013-03-19 23:49:00,
2013-03-19 18:54:00,13.5,-0.9,30.14,NW,315,30.0,35.0,52,0.00,,,0.01,meteohub,2013-03-19 23:54:00,
2013-03-19 18:59:00,13.3,-1.1,30.13,NW,315,28.0,35.0,52,0.00,,,0.01,meteohub,2013-03-19 23:59:00,
2013-03-19 19:05:00,13.1,-1.3,30.14,NW,315,27.0,34.0,52,0.00,,,0.00,meteohub,2013-03-20 00:05:00,
2013-03-19 19:10:00,13.1,-0.8,30.14,NW,315,24.0,30.0,53,0.00,,,0.00,meteohub,2013-03-20 00:10:00,
2013-03-19 19:15:00,12.7,-1.1,30.14,NW,315,21.0,30.0,53,0.00,,,0.00,meteohub,2013-03-20 00:15:00,
2013-03-19 19:21:00,12.6,-1.3,30.14,West,270,25.0,27.0,53,0.00,,,0.00,meteohub,2013-03-20 00:21:00,
2013-03-19 19:26:00,12.4,-1.1,30.14,NW,315,23.0,27.0,54,0.00,,,0.00,meteohub,2013-03-20 00:26:00,
2013-03-19 19:32:00,11.8,-1.3,30.14,NW,315,28.0,28.0,55,0.00,,,0.00,meteohub,2013-03-20 00:32:00,
2013-03-19 19:37:00,11.8,-1.3,30.14,NW,315,24.0,29.0,55,0.00,,,0.00,meteohub,2013-03-20 00:37:00,
2013-03-19 19:42:00,11.7,-1.3,30.14,NW,315,24.0,29.0,55,0.00,,,0.00,meteohub,2013-03-20 00:42:00,
2013-03-19 19:47:00,11.5,-1.5,30.15,NW,315,22.0,29.0,55,0.00,,,0.00,meteohub,2013-03-20 00:47:00,
2013-03-19 19:53:00,11.3,-1.7,30.15,NW,315,23.0,26.0,55,0.00,,,0.00,meteohub,2013-03-20 00:53:00,
2013-03-19 19:58:00,11.3,-1.3,30.15,NW,315,21.0,25.0,56,0.00,,,0.00,meteohub,2013-03-20 00:58:00,
2013-03-19 20:03:00,11.1,-1.5,30.15,NW,315,26.0,26.0,56,0.00,,,0.00,meteohub,2013-03-20 01:03:00,
2013-03-19 20:08:00,11.1,-1.5,30.15,NW,315,21.0,26.0,56,0.00,,,0.00,meteohub,2013-03-20 01:08:00,
2013-03-19 20:13:00,10.9,-1.7,30.15,NW,315,20.0,26.0,56,0.00,,,0.00,meteohub,2013-03-20 01:13:00,
2013-03-19 20:18:00,10.8,-1.8,30.15,NW,315,18.0,26.0,56,0.00,,,0.00,meteohub,2013-03-20 01:18:00,
2013-03-19 20:24:00,10.6,-2.0,30.15,NW,315,18.0,23.0,56,0.00,,,0.00,meteohub,2013-03-20 01:24:00,
2013-03-19 20:29:00,10.6,-2.0,30.15,NW,315,20.0,23.0,56,0.00,,,0.00,meteohub,2013-03-20 01:29:00,
2013-03-19 20:34:00,10.6,-1.7,30.15,West,270,16.0,21.0,57,0.00,,,0.00,meteohub,2013-03-20 01:34:00,
2013-03-19 20:39:00,10.2,-3.5,30.15,NW,315,17.0,20.0,53,0.00,,,0.00,meteohub,2013-03-20 01:39:00,
2013-03-19 20:45:00,10.4,-1.8,30.15,NW,315,17.0,20.0,57,0.00,,,0.00,meteohub,2013-03-20 01:45:00,
2013-03-19 20:50:00,10.0,-3.6,30.15,West,270,16.0,20.0,53,0.00,,,0.00,meteohub,2013-03-20 01:50:00,
2013-03-19 20:55:00,9.9,-3.8,30.15,West,270,17.0,19.0,53,0.00,,,0.00,meteohub,2013-03-20 01:55:00,
2013-03-19 21:00:00,9.9,-3.8,30.15,NW,315,18.0,18.0,53,0.00,,,0.00,meteohub,2013-03-20 02:00:00,
2013-03-19 21:05:00,9.9,-3.8,30.14,NW,315,15.0,18.0,53,0.00,,,0.00,meteohub,2013-03-20 02:05:00,
2013-03-19 21:11:00,9.9,-3.8,30.15,West,270,17.0,18.0,53,0.00,,,0.00,meteohub,2013-03-20 02:11:00,
2013-03-19 21:16:00,9.9,-3.8,30.15,West,270,17.0,20.0,53,0.00,,,0.00,meteohub,2013-03-20 02:16:00,
2013-03-19 21:21:00,9.5,-3.8,30.15,NW,315,16.0,20.0,54,0.00,,,0.00,meteohub,2013-03-20 02:21:00,
2013-03-19 21:26:00,9.5,-3.8,30.15,West,270,15.0,20.0,54,0.00,,,0.00,meteohub,2013-03-20 02:26:00,
2013-03-19 21:31:00,9.3,-4.0,30.15,West,270,16.0,17.0,54,0.00,,,0.00,meteohub,2013-03-20 02:31:00,
2013-03-19 21:37:00,9.1,-4.2,30.15,NW,315,15.0,17.0,54,0.00,,,0.00,meteohub,2013-03-20 02:37:00,
2013-03-19 21:42:00,9.1,-4.2,30.15,West,270,16.0,17.0,54,0.00,,,0.00,meteohub,2013-03-20 02:42:00,
2013-03-19 21:47:00,9.3,-4.0,30.15,West,270,14.0,17.0,54,0.00,,,0.00,meteohub,2013-03-20 02:47:00,
2013-03-19 21:52:00,9.3,-4.0,30.15,NW,315,15.0,17.0,54,0.00,,,0.00,meteohub,2013-03-20 02:52:00,
2013-03-19 21:57:00,9.3,-4.0,30.15,West,270,15.0,17.0,54,0.00,,,0.00,meteohub,2013-03-20 02:57:00,
2013-03-19 22:03:00,9.3,-4.0,30.15,NW,315,19.0,19.0,54,0.00,,,0.00,meteohub,2013-03-20 03:03:00,
2013-03-19 22:08:00,9.3,-4.0,30.15,NW,315,20.0,21.0,54,0.00,,,0.00,meteohub,2013-03-20 03:08:00,
2013-03-19 22:13:00,9.3,-3.6,30.15,West,270,20.0,21.0,55,0.00,,,0.00,meteohub,2013-03-20 03:13:00,
2013-03-19 22:18:00,9.3,-3.6,30.14,NW,315,21.0,21.0,55,0.00,,,0.00,meteohub,2013-03-20 03:18:00,
2013-03-19 22:24:00,9.1,-3.5,30.14,West,270,18.0,22.0,56,0.00,,,0.00,meteohub,2013-03-20 03:24:00,
2013-03-19 22:29:00,9.3,-3.3,30.15,West,270,22.0,22.0,56,0.00,,,0.00,meteohub,2013-03-20 03:29:00,
2013-03-19 22:34:00,9.1,-3.5,30.15,West,270,17.0,22.0,56,0.00,,,0.00,meteohub,2013-03-20 03:34:00,
2013-03-19 22:39:00,9.0,-3.1,30.15,West,270,20.0,22.0,57,0.00,,,0.00,meteohub,2013-03-20 03:39:00,
2013-03-19 22:44:00,8.8,-3.3,30.15,West,270,23.0,23.0,57,0.00,,,0.00,meteohub,2013-03-20 03:44:00,
2013-03-19 22:50:00,8.8,-2.9,30.15,West,270,21.0,24.0,58,0.00,,,0.00,meteohub,2013-03-20 03:50:00,
2013-03-19 22:55:00,8.8,-2.9,30.15,NW,315,26.0,26.0,58,0.00,,,0.00,meteohub,2013-03-20 03:55:00,
2013-03-19 23:00:00,8.8,-2.9,30.15,NW,315,23.0,24.0,58,0.00,,,0.00,meteohub,2013-03-20 04:00:00,
2013-03-19 23:02:00,8.8,-2.9,30.15,NW,315,26.0,27.0,58,0.00,,,0.00,meteohub,2013-03-20 04:02:00,
2013-03-19 23:07:00,8.8,-2.9,30.15,NW,315,23.0,27.0,58,0.00,,,0.00,meteohub,2013-03-20 04:07:00,
2013-03-19 23:13:00,8.8,-2.9,30.16,NW,315,23.0,27.0,58,0.00,,,0.00,meteohub,2013-03-20 04:13:00,
2013-03-19 23:18:00,8.8,-2.9,30.16,NW,315,23.0,26.0,58,0.00,,,0.00,meteohub,2013-03-20 04:18:00,
2013-03-19 23:23:00,8.4,-2.9,30.16,NW,315,19.0,27.0,59,0.00,,,0.00,meteohub,2013-03-20 04:23:00,
2013-03-19 23:28:00,8.2,-3.1,30.16,NW,315,18.0,27.0,59,0.00,,,0.00,meteohub,2013-03-20 04:28:00,
2013-03-19 23:33:00,8.1,-2.9,30.16,NW,315,21.0,27.0,60,0.00,,,0.00,meteohub,2013-03-20 04:33:00,
2013-03-19 23:38:00,8.1,-2.9,30.15,NW,315,23.0,23.0,60,0.00,,,0.00,meteohub,2013-03-20 04:38:00,
2013-03-19 23:44:00,8.1,-2.9,30.16,NW,315,24.0,24.0,60,0.00,,,0.00,meteohub,2013-03-20 04:44:00,
2013-03-19 23:49:00,7.9,-3.1,30.16,West,270,21.0,25.0,60,0.00,,,0.00,meteohub,2013-03-20 04:49:00,
2013-03-19 23:54:00,7.9,-3.5,30.16,NW,315,24.0,25.0,59,0.00,,,0.00,meteohub,2013-03-20 04:54:00,
2013-03-19 23:59:00,7.7,-3.6,30.16,WNW,293,23.0,27.0,59,0.00,,,0.00,meteohub,2013-03-20 04:59:00,